< < Back
Terminal Aerodrome Forecast


Current Version              Previous Versions:   1  2  3  4  5  6  7  8  9  

Terminal Aerodrome Forecast

384
FTUS42 KILM 210500
TAFILM
TAF
KILM 210523Z 2106/2206 03006KT 6SM BR FEW008 BKN035 OVC060
     FM211400 04008KT P6SM SCT020 BKN050
     FM211800 04009KT P6SM -RA BKN020 OVC050
     FM220000 03008KT 6SM -RA BR SCT008 OVC015=

Latest METAR

168
SAUS70 KWBC 210600 RRO
MTRILM
METAR KILM 210553Z AUTO 04006KT 7SM OVC060 04/03 A3024 RMK AO2 SLP239
T00390028 10050 20033 58009


USA.gov is the U.S. government's official web portal to all federal, state and local government web resources and services.